createdAt,value
2017-06-29T00:01:47.686Z,19.70
2017-06-29T00:04:14.102Z,19.70
2017-06-29T00:06:40.522Z,19.70
2017-06-29T00:09:06.938Z,19.70
2017-06-29T00:11:33.343Z,19.70
2017-06-29T00:13:59.747Z,19.70
2017-06-29T00:16:26.166Z,19.50
2017-06-29T00:18:52.614Z,19.40
2017-06-29T00:21:19.014Z,19.40
2017-06-29T00:23:45.408Z,19.30
2017-06-29T00:26:11.812Z,19.30
2017-06-29T00:28:38.980Z,19.30
2017-06-29T00:31:05.395Z,19.30
2017-06-29T00:33:32.729Z,19.40
2017-06-29T00:35:59.167Z,19.40
2017-06-29T00:38:25.580Z,19.40
2017-06-29T00:40:51.980Z,19.50
2017-06-29T00:43:18.409Z,19.50
2017-06-29T00:45:44.815Z,19.60
2017-06-29T00:48:11.976Z,19.50
2017-06-29T00:50:38.391Z,19.50
2017-06-29T00:53:04.785Z,19.40
2017-06-29T00:55:31.186Z,19.30
2017-06-29T00:57:57.616Z,19.30
2017-06-29T01:00:24.021Z,19.30
2017-06-29T01:02:50.421Z,19.30
2017-06-29T01:05:16.819Z,19.30
2017-06-29T01:07:43.256Z,19.20
2017-06-29T01:10:09.668Z,19.00
2017-06-29T01:12:36.797Z,18.90
2017-06-29T01:15:03.945Z,18.80
2017-06-29T01:17:30.352Z,18.80
2017-06-29T01:19:56.831Z,18.70
2017-06-29T01:22:23.965Z,18.80
2017-06-29T01:24:50.401Z,18.80
2017-06-29T01:27:16.829Z,18.80
2017-06-29T01:29:43.229Z,18.80
2017-06-29T01:32:09.655Z,18.80
2017-06-29T01:34:36.072Z,18.80
2017-06-29T01:37:02.521Z,18.80
2017-06-29T01:39:28.957Z,18.80
2017-06-29T01:41:55.380Z,18.90
2017-06-29T01:44:21.826Z,18.90
2017-06-29T01:46:48.224Z,18.80
2017-06-29T01:49:14.697Z,18.70
2017-06-29T01:51:41.162Z,18.70
2017-06-29T01:54:07.555Z,18.70
2017-06-29T01:56:34.009Z,18.70
2017-06-29T01:59:00.440Z,18.70
2017-06-29T02:01:26.872Z,18.70
2017-06-29T02:03:53.327Z,18.60
2017-06-29T02:06:19.744Z,18.70
2017-06-29T02:08:46.161Z,18.60
2017-06-29T02:11:12.652Z,18.60
2017-06-29T02:13:39.068Z,18.70
2017-06-29T02:16:05.473Z,18.80
2017-06-29T02:18:31.880Z,18.70
2017-06-29T02:20:58.273Z,18.60
2017-06-29T02:23:25.418Z,18.60
2017-06-29T02:25:52.576Z,18.50
2017-06-29T02:28:18.984Z,18.50
2017-06-29T02:30:46.154Z,18.60
2017-06-29T02:33:13.319Z,18.60
2017-06-29T02:35:39.709Z,18.60
2017-06-29T02:38:06.118Z,18.70
2017-06-29T02:40:32.535Z,18.80
2017-06-29T02:42:58.934Z,18.80
2017-06-29T02:45:26.087Z,19.00
2017-06-29T02:47:53.251Z,19.00
2017-06-29T02:50:19.721Z,18.90
2017-06-29T02:52:46.122Z,19.00
2017-06-29T02:55:12.576Z,19.00
2017-06-29T02:57:38.990Z,19.10
2017-06-29T03:00:05.379Z,19.20
2017-06-29T03:02:31.798Z,19.30
2017-06-29T03:04:58.194Z,19.30
2017-06-29T03:07:24.620Z,19.10
2017-06-29T03:09:51.053Z,19.20
2017-06-29T03:12:17.489Z,19.10
2017-06-29T03:14:43.925Z,19.10
2017-06-29T03:17:10.319Z,19.10
2017-06-29T03:19:36.752Z,19.20
2017-06-29T03:22:03.165Z,19.30
2017-06-29T03:24:29.560Z,19.40
2017-06-29T03:26:55.972Z,19.30
2017-06-29T03:29:22.392Z,19.30
2017-06-29T03:31:49.544Z,19.40
2017-06-29T03:34:16.679Z,19.40
2017-06-29T03:36:43.845Z,19.30
2017-06-29T03:39:11.041Z,19.20
2017-06-29T03:41:37.443Z,19.20
2017-06-29T03:44:03.850Z,19.10
2017-06-29T03:46:31.034Z,19.20
2017-06-29T03:48:57.825Z,19.20
2017-06-29T03:51:24.219Z,19.30
2017-06-29T03:53:50.636Z,19.30
2017-06-29T03:56:17.043Z,19.20
2017-06-29T03:58:44.213Z,19.30
2017-06-29T04:01:10.610Z,19.30
2017-06-29T04:03:37.043Z,19.40
2017-06-29T04:06:03.455Z,19.40
2017-06-29T04:08:29.848Z,19.40
2017-06-29T04:10:56.269Z,19.40
2017-06-29T04:13:22.685Z,19.40
2017-06-29T04:15:49.868Z,19.40
2017-06-29T04:18:16.289Z,19.40
2017-06-29T04:20:42.699Z,19.50
2017-06-29T04:23:09.877Z,19.40
2017-06-29T04:25:36.279Z,19.40
2017-06-29T04:28:02.690Z,19.50
2017-06-29T04:30:29.090Z,19.50
2017-06-29T04:32:55.510Z,19.70
2017-06-29T04:35:21.936Z,19.80
2017-06-29T04:37:48.373Z,20.00
2017-06-29T04:40:14.765Z,20.10
2017-06-29T04:42:41.190Z,20.20
2017-06-29T04:45:07.603Z,20.30
2017-06-29T04:47:34.017Z,20.40
2017-06-29T04:50:00.416Z,20.30
2017-06-29T04:52:27.577Z,20.50
2017-06-29T04:54:54.005Z,20.40
2017-06-29T04:57:21.173Z,20.50
2017-06-29T04:59:47.575Z,20.50
2017-06-29T05:02:13.988Z,20.50
2017-06-29T05:04:40.402Z,20.50
2017-06-29T05:07:06.791Z,20.60
2017-06-29T05:09:33.960Z,20.60
2017-06-29T05:12:00.388Z,20.60
2017-06-29T05:14:26.778Z,20.50
2017-06-29T05:16:53.203Z,20.50
2017-06-29T05:19:19.622Z,20.60
2017-06-29T05:21:46.041Z,20.70
2017-06-29T05:24:12.456Z,20.80
2017-06-29T05:26:38.893Z,20.60
2017-06-29T05:29:05.301Z,20.60
2017-06-29T05:31:32.447Z,20.40
2017-06-29T05:33:58.873Z,20.40
2017-06-29T05:36:26.049Z,20.30
2017-06-29T05:38:52.461Z,20.40
2017-06-29T05:41:19.616Z,20.30
2017-06-29T05:43:46.752Z,20.30
2017-06-29T05:46:13.269Z,20.20
2017-06-29T05:48:39.703Z,20.20
2017-06-29T05:51:06.113Z,20.10
2017-06-29T05:53:32.511Z,20.10
2017-06-29T05:55:58.895Z,20.10
2017-06-29T05:58:25.308Z,20.10
2017-06-29T06:00:51.687Z,20.00
2017-06-29T06:03:18.876Z,20.10
2017-06-29T06:05:45.291Z,20.10
2017-06-29T06:08:11.720Z,20.00
2017-06-29T06:10:38.173Z,19.80
2017-06-29T06:13:04.628Z,19.80
2017-06-29T06:15:31.068Z,19.90
2017-06-29T06:17:57.529Z,20.00
2017-06-29T06:20:23.953Z,20.00
2017-06-29T06:22:50.405Z,20.10
2017-06-29T06:25:17.577Z,20.20
2017-06-29T06:27:44.002Z,20.20
2017-06-29T06:30:10.427Z,20.40
2017-06-29T06:32:37.584Z,20.50
2017-06-29T06:35:04.059Z,20.40
2017-06-29T06:37:30.497Z,20.50
2017-06-29T06:39:56.897Z,20.80
2017-06-29T06:42:23.330Z,21.10
2017-06-29T06:44:49.737Z,21.40
2017-06-29T06:47:16.887Z,22.00
2017-06-29T06:49:44.016Z,22.30
2017-06-29T06:52:10.423Z,22.30
2017-06-29T06:54:36.825Z,22.50
2017-06-29T06:57:03.258Z,22.40
2017-06-29T06:59:29.652Z,22.40
2017-06-29T07:01:56.056Z,22.20
2017-06-29T07:04:22.488Z,22.10
2017-06-29T07:06:48.916Z,22.00
2017-06-29T07:09:15.301Z,21.90
2017-06-29T07:11:42.508Z,22.10
2017-06-29T07:14:08.909Z,22.10
2017-06-29T07:16:35.432Z,22.10
2017-06-29T07:19:01.893Z,22.20
2017-06-29T07:21:28.341Z,22.30
2017-06-29T07:23:54.726Z,22.30
2017-06-29T07:26:21.173Z,22.30
2017-06-29T07:28:47.623Z,22.10
2017-06-29T07:31:14.033Z,22.00
2017-06-29T07:33:40.482Z,22.10
2017-06-29T07:36:06.877Z,22.20
2017-06-29T07:38:34.051Z,22.20
2017-06-29T07:41:00.509Z,22.20
2017-06-29T07:43:26.920Z,22.20
2017-06-29T07:45:53.303Z,22.20
2017-06-29T07:48:19.720Z,22.20
2017-06-29T07:50:46.206Z,22.30
2017-06-29T07:53:13.345Z,22.80
2017-06-29T07:55:40.524Z,23.10
2017-06-29T07:58:07.156Z,23.10
2017-06-29T08:00:33.547Z,23.50
2017-06-29T08:02:59.975Z,23.60
2017-06-29T08:05:26.403Z,23.50
2017-06-29T08:07:53.247Z,23.00
2017-06-29T08:10:19.706Z,22.60
2017-06-29T08:12:46.888Z,22.30
2017-06-29T08:15:13.333Z,22.30
2017-06-29T08:17:39.743Z,22.30
2017-06-29T08:20:06.159Z,22.30
2017-06-29T08:22:33.296Z,22.20
2017-06-29T08:25:00.460Z,22.30
2017-06-29T08:27:27.632Z,22.20
2017-06-29T08:29:54.066Z,22.30
2017-06-29T08:32:20.508Z,22.20
2017-06-29T08:34:46.935Z,22.20
2017-06-29T08:37:13.340Z,22.20
2017-06-29T08:39:40.476Z,22.50
2017-06-29T08:42:06.871Z,22.50
2017-06-29T08:44:33.276Z,22.60
2017-06-29T08:46:59.709Z,22.50
2017-06-29T08:49:26.143Z,22.50
2017-06-29T08:51:52.550Z,22.60
2017-06-29T08:54:19.671Z,22.50
2017-06-29T08:56:46.084Z,22.50
2017-06-29T08:59:12.499Z,22.70
2017-06-29T09:01:38.921Z,22.60
2017-06-29T09:04:05.354Z,22.60
2017-06-29T09:06:31.750Z,22.50
2017-06-29T09:08:58.160Z,22.30
2017-06-29T09:11:24.601Z,22.30
2017-06-29T09:13:51.037Z,22.30
2017-06-29T09:16:17.492Z,22.20
2017-06-29T09:18:43.964Z,22.00
2017-06-29T09:21:10.422Z,21.80
2017-06-29T09:23:36.878Z,21.70
2017-06-29T09:26:03.349Z,21.90
2017-06-29T09:28:29.806Z,22.00
2017-06-29T09:30:56.188Z,22.20
2017-06-29T09:33:22.583Z,22.30
2017-06-29T09:35:49.035Z,22.60
2017-06-29T09:38:15.445Z,22.70
2017-06-29T09:40:41.886Z,22.90
2017-06-29T09:43:08.327Z,23.10
2017-06-29T09:45:34.733Z,23.30
2017-06-29T09:48:01.190Z,23.30
2017-06-29T09:50:27.606Z,23.10
2017-06-29T09:52:54.006Z,23.40
2017-06-29T09:55:21.201Z,22.90
2017-06-29T09:57:47.656Z,22.90
2017-06-29T10:00:14.411Z,22.80
2017-06-29T10:02:40.817Z,22.80
2017-06-29T10:05:07.235Z,23.00
2017-06-29T10:07:33.645Z,23.00
2017-06-29T10:10:00.040Z,23.20
2017-06-29T10:12:26.441Z,23.20
2017-06-29T10:14:52.851Z,23.10
2017-06-29T10:17:19.239Z,22.90
2017-06-29T10:19:45.621Z,23.00
2017-06-29T10:22:12.045Z,23.10
2017-06-29T10:24:38.469Z,23.20
2017-06-29T10:27:04.868Z,23.40
2017-06-29T10:29:31.301Z,23.70
2017-06-29T10:31:57.677Z,23.70
2017-06-29T10:34:24.102Z,23.70
2017-06-29T10:36:50.519Z,23.50
2017-06-29T10:39:17.730Z,22.70
2017-06-29T10:41:44.148Z,22.70
2017-06-29T10:44:10.559Z,22.60
2017-06-29T10:46:37.047Z,22.80
2017-06-29T10:49:03.465Z,23.10
2017-06-29T10:51:29.884Z,23.00
2017-06-29T10:53:56.293Z,22.80
2017-06-29T10:56:22.691Z,22.80
2017-06-29T10:58:49.102Z,22.80
2017-06-29T11:01:15.508Z,22.80
2017-06-29T11:03:41.919Z,22.80
2017-06-29T11:06:08.331Z,22.80
2017-06-29T11:08:34.801Z,22.90
2017-06-29T11:11:01.239Z,23.10
2017-06-29T11:13:27.710Z,23.10
2017-06-29T11:15:54.095Z,23.40
2017-06-29T11:18:20.559Z,23.50
2017-06-29T11:20:47.051Z,23.20
2017-06-29T11:23:13.469Z,22.90
2017-06-29T11:25:40.644Z,22.70
2017-06-29T11:28:07.098Z,22.70
2017-06-29T11:30:33.505Z,23.10
2017-06-29T11:33:02.184Z,23.10
2017-06-29T11:35:28.645Z,23.00
2017-06-29T11:37:55.033Z,22.90
2017-06-29T11:40:22.204Z,22.90
2017-06-29T11:42:48.638Z,22.90
2017-06-29T11:45:15.077Z,23.00
2017-06-29T11:47:41.474Z,23.00
2017-06-29T11:50:08.621Z,23.30
2017-06-29T11:52:35.797Z,23.20
2017-06-29T11:55:02.211Z,23.20
2017-06-29T11:57:29.364Z,23.40
2017-06-29T11:59:56.548Z,23.30
2017-06-29T12:02:23.007Z,23.30
2017-06-29T12:04:49.409Z,23.40
2017-06-29T12:07:15.800Z,23.40
2017-06-29T12:09:42.195Z,23.20
2017-06-29T12:12:08.604Z,23.40
2017-06-29T12:14:35.073Z,23.50
2017-06-29T12:17:01.482Z,23.50
2017-06-29T12:19:27.877Z,23.70
2017-06-29T12:21:55.018Z,23.70
2017-06-29T12:24:21.496Z,23.70
2017-06-29T12:26:47.910Z,24.00
2017-06-29T12:29:14.883Z,24.40
2017-06-29T12:31:41.296Z,24.40
2017-06-29T12:34:07.720Z,24.10
2017-06-29T12:36:34.117Z,24.10
2017-06-29T12:39:04.175Z,24.40
2017-06-29T12:44:19.455Z,24.70
2017-06-29T12:46:49.612Z,24.40
2017-06-29T12:49:16.053Z,24.00
2017-06-29T12:51:42.466Z,23.80
2017-06-29T12:54:09.583Z,24.00
2017-06-29T12:56:37.896Z,23.90
2017-06-29T12:59:04.281Z,24.00
2017-06-29T13:01:30.754Z,24.30
2017-06-29T13:03:57.229Z,24.50
2017-06-29T13:06:23.698Z,24.50
2017-06-29T13:08:50.128Z,24.20
2017-06-29T13:11:16.549Z,24.00
2017-06-29T13:13:43.643Z,24.00
2017-06-29T13:16:10.059Z,24.30
2017-06-29T13:18:36.500Z,24.30
2017-06-29T13:21:02.965Z,24.10
2017-06-29T13:23:29.378Z,24.10
2017-06-29T13:25:55.791Z,24.10
2017-06-29T13:28:22.263Z,24.10
2017-06-29T13:30:48.665Z,24.00
2017-06-29T13:33:15.076Z,23.90
2017-06-29T13:35:42.424Z,24.00
2017-06-29T13:38:08.825Z,24.00
2017-06-29T13:40:35.214Z,24.20
2017-06-29T13:43:01.585Z,24.50
2017-06-29T13:45:27.987Z,24.20
2017-06-29T13:47:54.433Z,24.00
2017-06-29T13:50:20.861Z,23.60
2017-06-29T13:52:47.242Z,23.70
2017-06-29T13:55:13.671Z,23.70
2017-06-29T13:57:40.097Z,23.50
2017-06-29T14:00:06.520Z,23.50
2017-06-29T14:02:33.715Z,23.60
2017-06-29T14:05:00.885Z,23.60
2017-06-29T14:07:27.308Z,23.60
2017-06-29T14:09:53.713Z,23.80
2017-06-29T14:12:20.119Z,23.90
2017-06-29T14:14:46.507Z,23.90
2017-06-29T14:17:12.892Z,24.10
2017-06-29T14:19:39.300Z,24.20
2017-06-29T14:22:06.076Z,24.40
2017-06-29T14:24:32.488Z,24.40
2017-06-29T14:26:58.908Z,24.20
2017-06-29T14:29:25.587Z,24.30
2017-06-29T14:31:51.999Z,24.30
2017-06-29T14:34:18.420Z,24.30
2017-06-29T14:36:44.822Z,24.30
2017-06-29T14:39:11.236Z,24.40
2017-06-29T14:41:37.670Z,24.30
2017-06-29T14:44:04.829Z,24.50
2017-06-29T14:46:31.240Z,24.50
2017-06-29T14:48:58.372Z,23.90
2017-06-29T14:51:24.849Z,23.90
2017-06-29T14:53:51.315Z,23.70
2017-06-29T14:56:17.736Z,23.80
2017-06-29T14:58:44.140Z,23.90
2017-06-29T15:01:11.303Z,24.20
2017-06-29T15:03:37.732Z,24.20
2017-06-29T15:06:04.153Z,24.10
2017-06-29T15:08:30.967Z,23.90
2017-06-29T15:10:57.348Z,23.90
2017-06-29T15:13:23.803Z,23.80
2017-06-29T15:15:50.212Z,23.70
2017-06-29T15:20:52.631Z,24.10
2017-06-29T15:23:19.097Z,23.80
2017-06-29T15:25:45.545Z,23.70
2017-06-29T15:28:12.713Z,23.50
2017-06-29T15:30:39.117Z,23.50
2017-06-29T15:33:05.532Z,23.70
2017-06-29T15:35:31.927Z,23.90
2017-06-29T15:37:58.362Z,24.00
2017-06-29T15:40:24.765Z,24.10
2017-06-29T15:42:51.936Z,24.00
2017-06-29T15:45:18.368Z,24.00
2017-06-29T15:47:44.761Z,24.00
2017-06-29T15:50:11.183Z,23.80
2017-06-29T15:52:37.583Z,23.50
2017-06-29T15:55:04.008Z,23.30
2017-06-29T15:57:30.432Z,23.00
2017-06-29T15:59:56.810Z,23.00
2017-06-29T16:02:23.224Z,22.90
2017-06-29T16:04:49.641Z,23.10
2017-06-29T16:07:16.924Z,23.40
2017-06-29T16:09:43.311Z,23.70
2017-06-29T16:12:09.725Z,23.70
2017-06-29T16:14:36.877Z,24.00
2017-06-29T16:17:04.053Z,23.90
2017-06-29T16:19:30.451Z,23.90
2017-06-29T16:21:57.616Z,24.40
2017-06-29T16:24:24.775Z,24.50
2017-06-29T16:26:51.158Z,24.50
2017-06-29T16:29:17.650Z,24.60
2017-06-29T16:31:44.121Z,24.70
2017-06-29T16:34:10.519Z,24.40
2017-06-29T16:36:36.917Z,24.20
2017-06-29T16:39:04.153Z,24.10
2017-06-29T16:41:30.566Z,24.10
2017-06-29T16:43:56.988Z,24.10
2017-06-29T16:46:23.398Z,24.20
2017-06-29T16:48:49.867Z,24.30
2017-06-29T16:51:16.380Z,24.40
2017-06-29T16:53:42.788Z,24.30
2017-06-29T16:56:09.175Z,24.20
2017-06-29T16:58:35.584Z,24.10
2017-06-29T17:01:02.118Z,24.00
2017-06-29T17:03:28.516Z,24.00
2017-06-29T17:05:54.973Z,23.90
2017-06-29T17:08:21.405Z,23.80
2017-06-29T17:10:47.827Z,23.80
2017-06-29T17:13:14.213Z,23.90
2017-06-29T17:15:40.619Z,23.80
2017-06-29T17:18:07.077Z,23.70
2017-06-29T17:20:33.475Z,23.80
2017-06-29T17:22:59.903Z,23.80
2017-06-29T17:25:26.311Z,23.90
2017-06-29T17:27:53.442Z,24.10
2017-06-29T17:30:20.592Z,24.10
2017-06-29T17:32:47.720Z,24.20
2017-06-29T17:35:14.134Z,24.20
2017-06-29T17:37:40.561Z,24.20
2017-06-29T17:40:06.976Z,24.20
2017-06-29T17:42:33.375Z,24.20
2017-06-29T17:45:00.533Z,24.00
2017-06-29T17:47:27.707Z,23.90
2017-06-29T17:49:54.143Z,23.90
2017-06-29T17:52:20.645Z,23.70
2017-06-29T17:54:47.829Z,23.70
2017-06-29T17:57:14.264Z,23.70
2017-06-29T17:59:40.644Z,23.60
2017-06-29T18:02:07.071Z,23.60
2017-06-29T18:04:33.488Z,23.50
2017-06-29T18:06:59.868Z,23.50
2017-06-29T18:09:27.028Z,23.40
2017-06-29T18:11:53.426Z,23.30
2017-06-29T18:14:19.815Z,23.40
2017-06-29T18:16:46.252Z,23.30
2017-06-29T18:19:13.136Z,23.20
2017-06-29T18:21:39.544Z,23.10
2017-06-29T18:24:05.953Z,23.10
2017-06-29T18:26:32.356Z,23.10
2017-06-29T18:28:59.920Z,22.90
2017-06-29T18:31:27.093Z,22.80
2017-06-29T18:33:53.491Z,22.80
2017-06-29T18:36:20.666Z,22.60
2017-06-29T18:38:47.061Z,22.60
2017-06-29T18:41:13.498Z,22.50
2017-06-29T18:43:39.887Z,22.40
2017-06-29T18:46:06.284Z,22.30
2017-06-29T18:48:33.533Z,22.00
2017-06-29T18:51:00.657Z,21.90
2017-06-29T18:53:27.107Z,21.90
2017-06-29T18:55:53.521Z,21.80
2017-06-29T18:58:19.979Z,21.60
2017-06-29T19:00:47.192Z,21.60
2017-06-29T19:03:13.613Z,21.50
2017-06-29T19:05:40.006Z,21.50
2017-06-29T19:08:06.422Z,21.50
2017-06-29T19:10:32.885Z,21.40
2017-06-29T19:12:59.300Z,21.40
2017-06-29T19:15:26.433Z,21.30
2017-06-29T19:17:52.921Z,21.30
2017-06-29T19:20:19.345Z,21.30
2017-06-29T19:22:45.801Z,21.20
2017-06-29T19:25:12.256Z,21.20
2017-06-29T19:27:38.744Z,21.10
2017-06-29T19:30:05.196Z,21.10
2017-06-29T19:32:31.577Z,21.10
2017-06-29T19:34:57.975Z,21.00
2017-06-29T19:37:24.395Z,21.00
2017-06-29T19:39:50.807Z,21.10
2017-06-29T19:42:17.201Z,21.00
2017-06-29T19:44:43.600Z,21.00
2017-06-29T19:47:09.982Z,21.00
2017-06-29T19:49:36.415Z,20.70
2017-06-29T19:52:02.834Z,20.60
2017-06-29T19:54:29.300Z,20.50
2017-06-29T19:56:55.710Z,20.30
2017-06-29T19:59:22.882Z,20.10
2017-06-29T20:01:49.311Z,20.10
2017-06-29T20:04:15.715Z,20.00
2017-06-29T20:06:42.207Z,20.00
2017-06-29T20:09:08.683Z,20.00
2017-06-29T20:11:35.116Z,20.00
2017-06-29T20:14:01.500Z,19.90
2017-06-29T20:16:27.920Z,19.90
2017-06-29T20:18:54.319Z,19.80
2017-06-29T20:21:20.874Z,19.80
2017-06-29T20:23:47.316Z,19.70
2017-06-29T20:26:13.773Z,19.70
2017-06-29T20:28:40.174Z,19.50
2017-06-29T20:31:07.353Z,19.40
2017-06-29T20:33:33.766Z,19.40
2017-06-29T20:36:00.194Z,19.40
2017-06-29T20:38:26.584Z,19.40
2017-06-29T20:40:53.003Z,19.40
2017-06-29T20:43:19.404Z,19.40
2017-06-29T20:45:45.788Z,19.30
2017-06-29T20:48:12.193Z,19.40
2017-06-29T20:50:38.593Z,19.40
2017-06-29T20:53:05.012Z,19.30
2017-06-29T20:55:31.416Z,19.20
2017-06-29T20:57:57.819Z,19.10
2017-06-29T21:00:24.243Z,18.90
2017-06-29T21:02:50.796Z,18.70
2017-06-29T21:05:17.197Z,18.70
2017-06-29T21:07:43.675Z,18.80
2017-06-29T21:10:10.429Z,18.80
2017-06-29T21:12:36.830Z,19.00
2017-06-29T21:15:03.248Z,19.00
2017-06-29T21:17:29.664Z,19.10
2017-06-29T21:19:56.067Z,19.10
2017-06-29T21:22:22.468Z,19.10
2017-06-29T21:24:48.876Z,19.10
2017-06-29T21:27:15.341Z,19.10
2017-06-29T21:29:41.752Z,19.20
2017-06-29T21:32:08.169Z,19.30
2017-06-29T21:34:34.596Z,19.60
2017-06-29T21:37:00.994Z,19.80
2017-06-29T21:39:27.462Z,19.80
2017-06-29T21:41:53.872Z,19.90
2017-06-29T21:44:21.046Z,19.90
2017-06-29T21:46:47.437Z,19.90
2017-06-29T21:49:13.881Z,20.00
2017-06-29T21:51:40.300Z,20.10
2017-06-29T21:54:06.685Z,20.00
2017-06-29T21:56:33.105Z,20.00
2017-06-29T21:58:59.556Z,20.00
2017-06-29T22:01:25.985Z,19.90
2017-06-29T22:03:52.548Z,19.80
2017-06-29T22:06:18.952Z,19.50
2017-06-29T22:08:45.341Z,19.30
2017-06-29T22:11:13.294Z,19.00
2017-06-29T22:13:39.719Z,19.00
2017-06-29T22:16:06.118Z,18.80
2017-06-29T22:18:32.521Z,18.70
2017-06-29T22:20:59.671Z,18.60
2017-06-29T22:23:26.822Z,18.40
2017-06-29T22:25:53.969Z,18.30
2017-06-29T22:28:21.137Z,18.30
2017-06-29T22:30:47.515Z,18.30
2017-06-29T22:33:13.923Z,18.30
2017-06-29T22:35:40.327Z,18.30
2017-06-29T22:38:07.495Z,18.20
2017-06-29T22:40:33.913Z,18.20
2017-06-29T22:43:00.297Z,18.20
2017-06-29T22:45:26.692Z,18.20
2017-06-29T22:47:53.134Z,18.10
2017-06-29T22:50:19.550Z,17.90
2017-06-29T22:52:45.973Z,18.10
2017-06-29T22:55:13.114Z,17.90
2017-06-29T22:57:40.249Z,17.80
2017-06-29T23:00:07.424Z,17.70
2017-06-29T23:02:33.838Z,17.70
2017-06-29T23:05:01.026Z,17.70
2017-06-29T23:07:27.496Z,17.60
2017-06-29T23:09:53.919Z,17.70
2017-06-29T23:12:20.318Z,17.70
2017-06-29T23:14:46.721Z,17.80
2017-06-29T23:19:37.157Z,17.80
2017-06-29T23:22:03.577Z,17.70
2017-06-29T23:24:30.726Z,17.70
2017-06-29T23:26:57.888Z,17.70
2017-06-29T23:29:24.327Z,17.70
2017-06-29T23:31:50.727Z,17.70
2017-06-29T23:34:17.900Z,17.50
2017-06-29T23:36:44.304Z,17.50
2017-06-29T23:39:10.705Z,17.70
2017-06-29T23:41:37.134Z,17.60
2017-06-29T23:44:03.540Z,17.80
2017-06-29T23:46:29.951Z,17.80
2017-06-29T23:48:57.090Z,18.10
2017-06-29T23:51:24.224Z,18.00
2017-06-29T23:53:50.605Z,17.90
2017-06-29T23:56:17.015Z,18.00
2017-06-29T23:58:44.183Z,18.10
